createdAt,value
2019-05-13T00:01:10.193Z,1.13
2019-05-13T00:03:36.483Z,1.47
2019-05-13T00:06:04.220Z,1.23
2019-05-13T00:08:33.617Z,2.57
2019-05-13T00:10:59.106Z,0.73
2019-05-13T00:13:25.394Z,0.90
2019-05-13T00:15:54.194Z,1.30
2019-05-13T00:18:20.556Z,1.33
2019-05-13T00:20:46.926Z,1.50
2019-05-13T00:23:14.310Z,2.07
2019-05-13T00:25:40.923Z,1.60
2019-05-13T00:28:07.723Z,1.40
2019-05-13T00:30:34.458Z,2.97
2019-05-13T00:33:03.449Z,1.07
2019-05-13T00:35:29.175Z,1.43
2019-05-13T00:37:55.429Z,2.73
2019-05-13T00:40:23.934Z,2.77
2019-05-13T00:42:49.907Z,0.93
2019-05-13T00:45:16.408Z,1.00
2019-05-13T00:47:43.690Z,1.13
2019-05-13T00:50:10.843Z,1.67
2019-05-13T00:52:37.288Z,1.43
2019-05-13T00:55:04.838Z,3.83
2019-05-13T00:57:31.315Z,1.87
2019-05-13T00:59:58.119Z,1.30
2019-05-13T01:02:24.674Z,3.27
2019-05-13T01:04:53.430Z,1.23
2019-05-13T01:07:27.701Z,2.03
2019-05-13T01:09:48.633Z,2.50
2019-05-13T01:12:14.911Z,2.00
2019-05-13T01:14:43.162Z,1.90
2019-05-13T01:17:09.494Z,1.93
2019-05-13T01:19:36.147Z,1.87
2019-05-13T01:22:03.447Z,1.10
2019-05-13T01:24:32.991Z,1.90
2019-05-13T01:26:59.523Z,1.60
2019-05-13T01:29:26.191Z,1.63
2019-05-13T01:31:53.836Z,1.57
2019-05-13T01:34:20.364Z,0.70
2019-05-13T01:36:46.859Z,0.93
2019-05-13T01:39:13.890Z,1.60
2019-05-13T01:41:40.402Z,1.43
2019-05-13T01:44:06.706Z,1.77
2019-05-13T01:46:34.685Z,1.33
2019-05-13T01:49:01.433Z,1.27
2019-05-13T01:51:27.822Z,1.33
2019-05-13T01:53:54.138Z,1.23
2019-05-13T01:56:20.830Z,1.07
2019-05-13T01:58:47.194Z,1.23
2019-05-13T02:01:13.891Z,3.27
2019-05-13T02:03:40.295Z,2.37
2019-05-13T02:06:06.691Z,1.57
2019-05-13T02:08:33.641Z,3.37
2019-05-13T02:11:00.794Z,1.30
2019-05-13T02:13:27.086Z,2.30
2019-05-13T02:15:54.928Z,2.87
2019-05-13T02:18:24.271Z,1.57
2019-05-13T02:20:50.448Z,3.03
2019-05-13T02:23:16.953Z,2.07
2019-05-13T02:25:44.032Z,1.80
2019-05-13T02:28:10.795Z,1.70
2019-05-13T02:30:37.316Z,1.30
2019-05-13T02:33:03.988Z,3.37
2019-05-13T02:35:32.521Z,2.83
2019-05-13T02:38:14.764Z,2.37
2019-05-13T02:40:27.303Z,1.50
2019-05-13T02:42:53.708Z,1.80
2019-05-13T02:45:22.555Z,1.67
2019-05-13T02:47:48.382Z,1.63
2019-05-13T02:50:15.056Z,2.00
2019-05-13T02:52:44.315Z,1.87
2019-05-13T02:55:12.365Z,1.33
2019-05-13T02:57:38.612Z,1.90
2019-05-13T03:00:07.247Z,1.23
2019-05-13T03:02:33.616Z,1.63
2019-05-13T03:05:03.206Z,2.40
2019-05-13T03:07:28.121Z,3.10
2019-05-13T03:09:54.416Z,1.37
2019-05-13T03:12:23.159Z,1.63
2019-05-13T03:14:48.996Z,1.67
2019-05-13T03:17:26.296Z,3.00
2019-05-13T03:19:53.201Z,2.47
2019-05-13T03:22:22.401Z,2.37
2019-05-13T03:24:52.124Z,2.37
2019-05-13T03:27:20.299Z,2.03
2019-05-13T03:29:45.077Z,2.37
2019-05-13T03:32:16.373Z,2.63
2019-05-13T03:34:44.434Z,1.60
2019-05-13T03:37:14.570Z,2.50
2019-05-13T03:39:38.613Z,2.73
2019-05-13T03:42:05.008Z,4.23
2019-05-13T03:44:32.477Z,2.77
2019-05-13T03:47:03.453Z,1.80
2019-05-13T03:49:33.098Z,3.17
2019-05-13T03:52:02.598Z,2.47
2019-05-13T03:54:28.498Z,1.27
2019-05-13T03:56:55.256Z,1.60
2019-05-13T03:59:22.664Z,2.63
2019-05-13T04:01:52.327Z,1.83
2019-05-13T04:04:18.041Z,1.00
2019-05-13T04:06:44.667Z,1.50
2019-05-13T04:09:22.196Z,2.00
2019-05-13T04:11:42.374Z,28.07
2019-05-13T04:14:12.432Z,11.17
2019-05-13T04:16:38.520Z,2.13
2019-05-13T04:19:05.534Z,1.67
2019-05-13T04:21:33.801Z,2.50
2019-05-13T04:24:03.723Z,1.70
2019-05-13T04:26:32.348Z,1.00
2019-05-13T04:28:58.360Z,1.50
2019-05-13T04:31:24.864Z,1.30
2019-05-13T04:33:53.097Z,1.50
2019-05-13T04:36:23.068Z,1.30
2019-05-13T04:38:47.963Z,1.13
2019-05-13T04:41:14.922Z,2.17
2019-05-13T04:43:43.393Z,2.97
2019-05-13T04:46:13.585Z,3.93
2019-05-13T04:48:40.553Z,2.40
2019-05-13T04:51:06.806Z,1.97
2019-05-13T04:53:33.771Z,1.60
2019-05-13T04:56:03.186Z,1.17
2019-05-13T04:58:31.935Z,2.17
2019-05-13T05:01:14.015Z,2.00
2019-05-13T05:03:53.117Z,2.30
2019-05-13T05:06:33.381Z,1.43
2019-05-13T05:09:18.486Z,3.77
2019-05-13T05:11:54.226Z,2.67
2019-05-13T05:14:33.153Z,1.90
2019-05-13T05:17:34.032Z,5.50
2019-05-13T05:20:04.306Z,3.37
2019-05-13T05:22:52.054Z,3.50
2019-05-13T05:25:45.862Z,2.60
2019-05-13T05:28:34.064Z,2.10
2019-05-13T05:31:11.540Z,2.70
2019-05-13T05:34:06.343Z,1.77
2019-05-13T05:36:52.053Z,2.50
2019-05-13T05:39:23.964Z,1.70
2019-05-13T05:41:53.332Z,1.80
2019-05-13T05:44:22.919Z,2.13
2019-05-13T05:46:53.020Z,2.07
2019-05-13T05:49:21.899Z,2.47
2019-05-13T05:51:51.466Z,2.00
2019-05-13T05:54:21.663Z,2.90
2019-05-13T05:56:51.982Z,1.67
2019-05-13T05:59:21.827Z,4.60
2019-05-13T06:01:52.596Z,2.20
2019-05-13T06:04:21.802Z,2.43
2019-05-13T06:06:52.063Z,2.63
2019-05-13T06:09:17.682Z,3.47
2019-05-13T06:11:44.522Z,2.67
2019-05-13T06:14:11.355Z,2.40
2019-05-13T06:16:38.118Z,2.97
2019-05-13T06:19:04.500Z,2.50
2019-05-13T06:21:32.108Z,2.93
2019-05-13T06:23:58.796Z,3.20
2019-05-13T06:26:25.275Z,3.70
2019-05-13T06:28:52.170Z,2.87
2019-05-13T06:31:21.356Z,2.53
2019-05-13T06:33:47.542Z,3.53
2019-05-13T06:36:14.387Z,3.83
2019-05-13T06:38:42.470Z,2.57
2019-05-13T06:41:12.286Z,3.33
2019-05-13T06:43:37.331Z,3.90
2019-05-13T06:46:03.825Z,2.73
2019-05-13T06:48:32.181Z,2.30
2019-05-13T06:50:58.723Z,4.53
2019-05-13T06:53:25.015Z,3.10
2019-05-13T06:55:52.300Z,1.33
2019-05-13T06:58:18.844Z,1.73
2019-05-13T07:00:45.325Z,2.67
2019-05-13T07:03:12.594Z,2.53
2019-05-13T07:05:42.153Z,2.30
2019-05-13T07:08:07.775Z,2.83
2019-05-13T07:10:34.155Z,3.00
2019-05-13T07:13:02.213Z,2.00
2019-05-13T07:15:31.370Z,3.70
2019-05-13T07:17:56.986Z,3.70
2019-05-13T07:20:23.269Z,3.50
2019-05-13T07:22:52.958Z,2.63
2019-05-13T07:25:17.926Z,1.57
2019-05-13T07:27:44.544Z,2.13
2019-05-13T07:30:12.698Z,2.33
2019-05-13T07:32:41.871Z,2.43
2019-05-13T07:35:07.618Z,3.23
2019-05-13T07:37:37.798Z,2.70
2019-05-13T07:40:06.130Z,3.20
2019-05-13T07:42:32.414Z,1.20
2019-05-13T07:45:01.302Z,2.33
2019-05-13T07:47:27.578Z,3.10
2019-05-13T07:49:53.869Z,2.00
2019-05-13T07:52:22.548Z,2.67
2019-05-13T07:54:48.386Z,2.07
2019-05-13T07:57:14.657Z,2.37
2019-05-13T07:59:41.949Z,2.90
2019-05-13T08:02:08.745Z,1.40
2019-05-13T08:04:35.015Z,1.43
2019-05-13T08:07:02.259Z,1.97
2019-05-13T08:09:31.131Z,3.13
2019-05-13T08:12:08.718Z,1.60
2019-05-13T08:14:27.978Z,2.37
2019-05-13T08:16:54.375Z,2.47
2019-05-13T08:19:21.760Z,1.40
2019-05-13T08:21:48.403Z,2.30
2019-05-13T08:24:14.666Z,0.67
2019-05-13T08:26:47.516Z,1.27
2019-05-13T08:29:11.361Z,1.63
2019-05-13T08:31:37.338Z,1.80
2019-05-13T08:34:05.071Z,1.57
2019-05-13T08:36:32.686Z,1.03
2019-05-13T08:39:02.386Z,1.30
2019-05-13T08:41:32.015Z,1.00
2019-05-13T08:43:57.722Z,1.70
2019-05-13T08:46:24.652Z,1.33
2019-05-13T08:48:51.910Z,2.30
2019-05-13T08:51:18.430Z,1.40
2019-05-13T08:53:44.829Z,1.23
2019-05-13T08:56:12.231Z,1.23
2019-05-13T08:58:38.685Z,1.50
2019-05-13T09:01:05.167Z,1.73
2019-05-13T09:03:32.602Z,0.53
2019-05-13T09:05:59.629Z,1.50
2019-05-13T09:08:26.747Z,0.67
2019-05-13T09:10:56.719Z,1.73
2019-05-13T09:13:22.533Z,0.97
2019-05-13T09:15:51.705Z,2.03
2019-05-13T09:18:18.397Z,1.07
2019-05-13T09:20:44.795Z,1.30
2019-05-13T09:23:11.556Z,2.17
2019-05-13T09:25:38.048Z,1.83
2019-05-13T09:28:04.986Z,2.10
2019-05-13T09:30:32.835Z,2.30
2019-05-13T09:32:59.112Z,1.02
2019-05-13T09:35:25.771Z,1.82
2019-05-13T09:37:52.411Z,1.27
2019-05-13T09:40:18.779Z,1.22
2019-05-13T09:42:51.551Z,1.67
2019-05-13T09:45:13.968Z,1.00
2019-05-13T09:47:41.754Z,0.93
2019-05-13T09:50:08.851Z,2.67
2019-05-13T09:52:35.141Z,1.57
2019-05-13T09:55:03.353Z,3.37
2019-05-13T09:57:32.101Z,1.17
2019-05-13T09:59:58.295Z,1.85
2019-05-13T10:02:24.561Z,1.87
2019-05-13T10:04:51.652Z,1.10
2019-05-13T10:07:18.623Z,1.75
2019-05-13T10:09:48.263Z,1.32
2019-05-13T10:12:13.438Z,1.92
2019-05-13T10:14:40.070Z,1.47
2019-05-13T10:17:06.813Z,1.32
2019-05-13T10:19:33.438Z,0.98
2019-05-13T10:22:00.183Z,1.55
2019-05-13T10:24:26.929Z,1.15
2019-05-13T10:26:53.619Z,1.77
2019-05-13T10:29:22.316Z,1.47
2019-05-13T10:31:51.375Z,1.30
2019-05-13T10:34:17.579Z,2.27
2019-05-13T10:36:45.042Z,1.77
2019-05-13T10:39:12.234Z,1.77
2019-05-13T10:41:38.689Z,3.65
2019-05-13T10:44:05.254Z,1.25
2019-05-13T10:46:32.116Z,1.30
2019-05-13T10:48:58.641Z,1.60
2019-05-13T10:51:25.408Z,1.52
2019-05-13T10:53:58.499Z,1.75
2019-05-13T10:56:21.293Z,1.80
2019-05-13T10:58:47.683Z,0.98
2019-05-13T11:01:14.046Z,1.50
2019-05-13T11:03:42.787Z,1.20
2019-05-13T11:06:11.031Z,1.00
2019-05-13T11:08:37.242Z,1.62
2019-05-13T11:11:03.811Z,2.12
2019-05-13T11:13:49.569Z,1.47
2019-05-13T11:15:58.814Z,2.05
2019-05-13T11:18:25.205Z,1.30
2019-05-13T11:20:51.706Z,0.88
2019-05-13T11:23:18.071Z,1.50
2019-05-13T11:25:44.479Z,1.62
2019-05-13T11:28:12.299Z,2.87
2019-05-13T11:30:39.375Z,1.17
2019-05-13T11:33:10.094Z,1.80
2019-05-13T11:35:34.179Z,2.42
2019-05-13T11:38:01.581Z,1.75
2019-05-13T11:40:28.591Z,1.80
2019-05-13T11:42:54.966Z,1.20
2019-05-13T11:45:22.393Z,1.47
2019-05-13T11:47:52.218Z,1.42
2019-05-13T11:50:18.895Z,1.70
2019-05-13T11:52:45.411Z,1.62
2019-05-13T11:55:13.765Z,1.90
2019-05-13T11:57:43.444Z,1.52
2019-05-13T12:00:13.490Z,2.37
2019-05-13T12:02:42.275Z,1.27
2019-05-13T12:05:08.011Z,1.42
2019-05-13T12:07:34.734Z,2.45
2019-05-13T12:10:02.618Z,1.32
2019-05-13T12:12:33.576Z,1.98
2019-05-13T12:15:22.235Z,2.42
2019-05-13T12:17:25.922Z,1.50
2019-05-13T12:19:54.306Z,0.78
2019-05-13T12:22:22.977Z,1.20
2019-05-13T12:24:49.681Z,4.65
2019-05-13T12:27:17.655Z,1.37
2019-05-13T12:29:45.424Z,1.70
2019-05-13T12:32:13.531Z,1.57
2019-05-13T12:34:44.968Z,1.17
2019-05-13T12:37:08.269Z,1.42
2019-05-13T12:39:34.671Z,1.67
2019-05-13T12:42:03.346Z,2.10
2019-05-13T12:44:31.590Z,2.20
2019-05-13T12:46:58.038Z,2.08
2019-05-13T12:49:32.100Z,1.65
2019-05-13T12:52:00.323Z,1.00
2019-05-13T12:54:23.679Z,0.90
2019-05-13T12:56:52.515Z,0.85
2019-05-13T12:59:19.013Z,1.98
2019-05-13T13:01:46.079Z,1.12
2019-05-13T13:04:12.689Z,1.82
2019-05-13T13:06:41.708Z,1.87
2019-05-13T13:09:07.762Z,1.75
2019-05-13T13:11:34.161Z,1.42
2019-05-13T13:14:05.390Z,2.02
2019-05-13T13:16:34.431Z,2.92
2019-05-13T13:18:57.641Z,1.98
2019-05-13T13:21:33.205Z,2.02
2019-05-13T13:23:52.295Z,1.27
2019-05-13T13:26:33.525Z,1.12
2019-05-13T13:29:00.476Z,1.67
2019-05-13T13:31:27.210Z,2.58
2019-05-13T13:33:55.481Z,1.65
2019-05-13T13:36:24.287Z,1.20
2019-05-13T13:38:55.671Z,1.47
2019-05-13T13:41:22.753Z,1.00
2019-05-13T13:43:46.861Z,1.93
2019-05-13T13:46:31.664Z,2.60
2019-05-13T13:48:43.681Z,1.90
2019-05-13T13:51:14.132Z,1.50
2019-05-13T13:53:43.851Z,1.77
2019-05-13T13:56:07.248Z,1.87
2019-05-13T13:58:34.161Z,2.20
2019-05-13T14:01:11.183Z,2.57
2019-05-13T14:03:34.032Z,2.83
2019-05-13T14:05:59.021Z,2.00
2019-05-13T14:08:25.391Z,2.90
2019-05-13T14:10:51.958Z,2.23
2019-05-13T14:13:18.347Z,1.60
2019-05-13T14:15:44.633Z,2.20
2019-05-13T14:18:11.433Z,2.93
2019-05-13T14:20:38.057Z,2.73
2019-05-13T14:23:04.739Z,1.77
2019-05-13T14:25:32.451Z,3.07
2019-05-13T14:27:59.119Z,2.30
2019-05-13T14:30:25.591Z,2.13
2019-05-13T14:32:52.162Z,2.13
2019-05-13T14:35:18.568Z,4.40
2019-05-13T14:37:45.034Z,2.37
2019-05-13T14:40:12.352Z,1.83
2019-05-13T14:42:38.713Z,2.43
2019-05-13T14:45:06.948Z,1.80
2019-05-13T14:47:33.508Z,2.83
2019-05-13T14:50:01.949Z,3.33
2019-05-13T14:52:28.623Z,2.13
2019-05-13T14:54:55.335Z,1.80
2019-05-13T14:57:21.995Z,2.47
2019-05-13T14:59:48.339Z,3.37
2019-05-13T15:02:14.743Z,3.77
2019-05-13T15:04:41.926Z,4.67
2019-05-13T15:07:11.682Z,4.90
2019-05-13T15:09:37.607Z,2.73
2019-05-13T15:12:04.193Z,3.83
2019-05-13T15:14:32.336Z,2.47
2019-05-13T15:17:03.068Z,3.40
2019-05-13T15:19:46.692Z,2.43
2019-05-13T15:22:15.869Z,2.10
2019-05-13T15:24:41.628Z,2.43
2019-05-13T15:27:08.138Z,2.80
2019-05-13T15:29:34.511Z,2.30
2019-05-13T15:32:02.031Z,2.20
2019-05-13T15:34:28.700Z,2.23
2019-05-13T15:36:56.460Z,3.53
2019-05-13T15:39:22.881Z,2.50
2019-05-13T15:41:49.376Z,2.43
2019-05-13T15:44:15.757Z,1.50
2019-05-13T15:46:42.063Z,2.00
2019-05-13T15:49:08.443Z,2.77
2019-05-13T15:51:34.890Z,2.27
2019-05-13T15:54:02.367Z,2.23
2019-05-13T15:56:31.532Z,2.77
2019-05-13T15:58:57.947Z,2.07
2019-05-13T16:01:24.687Z,2.83
2019-05-13T16:03:52.419Z,2.37
2019-05-13T16:06:19.270Z,1.73
2019-05-13T16:08:46.778Z,2.20
2019-05-13T16:11:13.160Z,1.53
2019-05-13T16:13:41.051Z,2.73
2019-05-13T16:16:08.510Z,2.40
2019-05-13T16:18:35.211Z,1.87
2019-05-13T16:21:01.919Z,2.90
2019-05-13T16:23:28.721Z,1.70
2019-05-13T16:25:55.098Z,1.13
2019-05-13T16:28:21.768Z,2.27
2019-05-13T16:30:48.495Z,1.70
2019-05-13T16:33:14.935Z,1.07
2019-05-13T16:35:42.485Z,2.97
2019-05-13T16:38:11.168Z,2.43
2019-05-13T16:40:37.296Z,1.80
2019-05-13T16:43:03.691Z,1.37
2019-05-13T16:45:31.555Z,3.13
2019-05-13T16:48:01.540Z,1.30
2019-05-13T16:50:26.647Z,1.00
2019-05-13T16:52:53.399Z,2.33
2019-05-13T16:55:21.157Z,3.67
2019-05-13T16:57:47.667Z,2.43
2019-05-13T17:00:14.761Z,2.07
2019-05-13T17:02:42.127Z,1.03
2019-05-13T17:05:09.355Z,2.40
2019-05-13T17:07:35.714Z,2.23
2019-05-13T17:10:05.198Z,1.73
2019-05-13T17:12:31.935Z,2.07
2019-05-13T17:14:58.311Z,1.67
2019-05-13T17:17:25.208Z,2.50
2019-05-13T17:19:53.763Z,2.20
2019-05-13T17:22:20.127Z,2.83
2019-05-13T17:24:46.979Z,3.13
2019-05-13T17:27:13.267Z,2.07
2019-05-13T17:29:39.739Z,1.37
2019-05-13T17:32:06.675Z,1.57
2019-05-13T17:34:33.216Z,1.53
2019-05-13T17:37:02.666Z,2.23
2019-05-13T17:39:28.783Z,5.47
2019-05-13T17:41:55.053Z,2.20
2019-05-13T17:44:21.942Z,2.53
2019-05-13T17:46:48.756Z,2.13
2019-05-13T17:49:15.184Z,1.23
2019-05-13T17:51:42.455Z,1.20
2019-05-13T17:54:11.608Z,1.27
2019-05-13T17:56:37.975Z,1.80
2019-05-13T17:59:04.270Z,2.00
2019-05-13T18:01:31.702Z,2.27
2019-05-13T18:03:58.131Z,2.47
2019-05-13T18:06:24.702Z,1.27
2019-05-13T18:08:51.752Z,1.70
2019-05-13T18:11:18.257Z,2.10
2019-05-13T18:13:44.632Z,2.63
2019-05-13T18:16:12.581Z,2.83
2019-05-13T18:18:46.330Z,4.77
2019-05-13T18:21:07.386Z,5.70
2019-05-13T18:23:33.658Z,3.27
2019-05-13T18:26:01.949Z,3.13
2019-05-13T18:28:31.472Z,2.57
2019-05-13T18:30:56.654Z,2.93
2019-05-13T18:33:22.955Z,2.13
2019-05-13T18:35:49.282Z,1.70
2019-05-13T18:38:16.043Z,2.60
2019-05-13T18:40:43.529Z,2.97
2019-05-13T18:43:09.938Z,1.60
2019-05-13T18:45:36.310Z,1.63
2019-05-13T18:48:02.706Z,2.40
2019-05-13T18:50:31.276Z,2.07
2019-05-13T18:52:57.655Z,1.33
2019-05-13T18:55:23.957Z,2.20
2019-05-13T18:57:51.813Z,2.50
2019-05-13T19:00:19.067Z,2.50
2019-05-13T19:02:45.504Z,2.10
2019-05-13T19:05:14.201Z,2.53
2019-05-13T19:07:41.804Z,2.20
2019-05-13T19:10:11.525Z,0.90
2019-05-13T19:12:38.336Z,3.70
2019-05-13T19:15:05.736Z,1.67
2019-05-13T19:17:32.366Z,2.70
2019-05-13T19:19:58.820Z,1.77
2019-05-13T19:22:26.299Z,2.20
2019-05-13T19:24:53.246Z,2.30
2019-05-13T19:27:21.560Z,1.70
2019-05-13T19:29:48.018Z,2.30
2019-05-13T19:32:14.363Z,1.87
2019-05-13T19:34:42.325Z,1.63
2019-05-13T19:37:11.553Z,1.73
2019-05-13T19:39:38.254Z,2.63
2019-05-13T19:42:04.652Z,2.30
2019-05-13T19:44:31.567Z,4.30
2019-05-13T19:46:58.196Z,3.07
2019-05-13T19:49:32.098Z,3.07
2019-05-13T19:51:53.898Z,3.73
2019-05-13T19:54:22.152Z,4.00
2019-05-13T19:56:48.483Z,4.63
2019-05-13T19:59:15.136Z,7.07
2019-05-13T20:01:42.352Z,5.57
2019-05-13T20:04:09.086Z,7.20
2019-05-13T20:06:35.377Z,5.70
2019-05-13T20:09:01.696Z,5.03
2019-05-13T20:11:29.296Z,5.63
2019-05-13T20:13:55.963Z,5.07
2019-05-13T20:16:22.503Z,4.17
2019-05-13T20:18:48.866Z,6.07
2019-05-13T20:21:15.263Z,6.10
2019-05-13T20:23:41.639Z,5.43
2019-05-13T20:26:08.213Z,5.27
2019-05-13T20:28:34.690Z,6.63
2019-05-13T20:31:01.816Z,5.43
2019-05-13T20:33:32.015Z,4.57
2019-05-13T20:35:58.034Z,7.43
2019-05-13T20:38:24.422Z,5.70
2019-05-13T20:40:51.907Z,4.10
2019-05-13T20:43:18.863Z,4.60
2019-05-13T20:45:45.515Z,3.60
2019-05-13T20:48:12.259Z,4.27
2019-05-13T20:50:41.092Z,5.07
2019-05-13T20:53:07.260Z,6.60
2019-05-13T20:55:33.894Z,7.40
2019-05-13T20:58:01.479Z,8.83
2019-05-13T21:00:31.043Z,7.70
2019-05-13T21:02:57.627Z,5.57
2019-05-13T21:05:24.011Z,6.17
2019-05-13T21:07:51.496Z,4.37
2019-05-13T21:10:18.025Z,5.37
2019-05-13T21:12:44.482Z,8.87
2019-05-13T21:15:12.969Z,12.40
2019-05-13T21:17:39.261Z,14.77
2019-05-13T21:20:18.715Z,13.20
2019-05-13T21:22:34.495Z,9.30
2019-05-13T21:25:02.130Z,8.03
2019-05-13T21:27:31.504Z,5.57
2019-05-13T21:29:57.985Z,6.87
2019-05-13T21:32:24.387Z,6.50
2019-05-13T21:34:51.583Z,6.23
2019-05-13T21:37:18.242Z,10.23
2019-05-13T21:39:44.519Z,9.43
2019-05-13T21:42:11.481Z,6.83
2019-05-13T21:44:37.911Z,5.77
2019-05-13T21:47:04.663Z,5.57
2019-05-13T21:49:32.001Z,7.27
2019-05-13T21:51:58.530Z,6.53
2019-05-13T21:54:24.807Z,10.63
2019-05-13T21:56:51.583Z,8.47
2019-05-13T21:59:18.103Z,8.67
2019-05-13T22:01:44.803Z,7.23
2019-05-13T22:04:12.356Z,5.20
2019-05-13T22:06:39.263Z,5.33
2019-05-13T22:09:07.667Z,5.37
2019-05-13T22:11:35.159Z,5.20
2019-05-13T22:14:01.809Z,7.67
2019-05-13T22:16:28.224Z,6.67
2019-05-13T22:18:54.512Z,7.07
2019-05-13T22:21:20.778Z,6.23
2019-05-13T22:23:47.054Z,6.17
2019-05-13T22:26:14.439Z,4.67
2019-05-13T22:28:41.742Z,2.80
2019-05-13T22:31:08.420Z,2.70
2019-05-13T22:33:35.099Z,4.37
2019-05-13T22:36:01.769Z,3.90
2019-05-13T22:38:28.267Z,2.73
2019-05-13T22:40:54.631Z,1.57
2019-05-13T22:43:21.285Z,1.87
2019-05-13T22:45:47.702Z,2.00
2019-05-13T22:48:15.063Z,1.70
2019-05-13T22:50:41.796Z,0.97
2019-05-13T22:53:08.111Z,2.80
2019-05-13T22:55:34.487Z,2.23
2019-05-13T22:58:01.541Z,2.43
2019-05-13T23:00:28.525Z,1.80
2019-05-13T23:02:54.995Z,1.80
2019-05-13T23:05:21.838Z,1.57
2019-05-13T23:07:48.280Z,2.17
2019-05-13T23:10:14.765Z,2.60
2019-05-13T23:12:42.181Z,2.20
2019-05-13T23:15:09.131Z,1.60
2019-05-13T23:17:35.496Z,1.93
2019-05-13T23:20:03.387Z,1.57
2019-05-13T23:22:29.906Z,1.87
2019-05-13T23:24:56.298Z,1.60
2019-05-13T23:27:22.667Z,2.07
2019-05-13T23:29:51.577Z,2.00
2019-05-13T23:32:17.898Z,2.17
2019-05-13T23:34:44.279Z,3.07
2019-05-13T23:37:11.371Z,3.87
2019-05-13T23:39:37.855Z,2.23
2019-05-13T23:42:04.328Z,3.07
2019-05-13T23:44:32.176Z,3.77
2019-05-13T23:46:58.786Z,2.20
2019-05-13T23:49:25.493Z,1.60
2019-05-13T23:51:52.149Z,1.53
2019-05-13T23:54:18.652Z,2.30
2019-05-13T23:56:44.935Z,2.43
2019-05-13T23:59:11.508Z,2.60
